Etusivu
METAR-TAF:

METAR-TAF

Lentoasemat :

Brenham Municipal Airport

Brenham, Texas, Yhdysvallat

Leveyspiiri: 30-13-08N, Pituuspiiri: 096-22-27W, korkeus merenpinnasta: 94 m

Tämänhetkinen sää

Tämä raportti tehtiin 23 minuuttia sitten, kello 10.35 UTC
Tuuli 4 kn idästä/koillisesta
Lämpötila 24°C
Kosteus 83%
Ilmanpaine 1011 hPa
Näkyvyys: 16.1 km
selkeää

METAR: K11R 201035Z AUTO 06004KT 10SM CLR 24/21 A2985 RMK AO2 LTG DSNT N T02350208

Aika: 05:58 (10:58 UTC)


TAF: puuttuu

Säähavainnot ja -ennusteet yli 4000 lentoasemalta (METAR- ja TAF-raportit).

Käytössä olevat sääasemat on merkitty karttaan keltaisilla ja punaisilla pisteillä.

Aseta hiiri pisteen päälle nähdäksesi sääaseman nimen.

Klikkaa sitten nähdäksesi säähavainnot ja -ennusteet.

Kartan vaihtaminen: klikkaa mustalla rastilla varustettuja vihreitä pisteitä, niin voit zoomata sisään; viivalla varustettua vihreää pistettä, niin voit zoomata ulos tai vihreitä nuolia, niin pääset viereisille kartoille.


METAR-TAF: